sensor_id;sensor_type;location;lat;lon;timestamp;temperature;humidity
19868;DHT22;10096;51.112;6.776;2023-06-14T00:02:05;20.80;99.90
19868;DHT22;10096;51.112;6.776;2023-06-14T00:04:36;20.50;99.90
19868;DHT22;10096;51.112;6.776;2023-06-14T00:07:05;20.60;99.90
19868;DHT22;10096;51.112;6.776;2023-06-14T00:09:35;20.50;99.90
19868;DHT22;10096;51.112;6.776;2023-06-14T00:12:03;20.60;99.90
19868;DHT22;10096;51.112;6.776;2023-06-14T00:14:31;20.30;99.90
19868;DHT22;10096;51.112;6.776;2023-06-14T00:16:59;20.40;99.90
19868;DHT22;10096;51.112;6.776;2023-06-14T00:19:27;20.30;99.90
19868;DHT22;10096;51.112;6.776;2023-06-14T00:21:57;20.30;99.90
19868;DHT22;10096;51.112;6.776;2023-06-14T00:24:26;20.30;99.90
19868;DHT22;10096;51.112;6.776;2023-06-14T00:26:54;20.10;99.90
19868;DHT22;10096;51.112;6.776;2023-06-14T00:29:21;19.90;99.90
19868;DHT22;10096;51.112;6.776;2023-06-14T00:31:48;19.90;99.90
19868;DHT22;10096;51.112;6.776;2023-06-14T00:34:15;19.80;99.90
19868;DHT22;10096;51.112;6.776;2023-06-14T00:36:43;19.70;99.90
19868;DHT22;10096;51.112;6.776;2023-06-14T00:39:12;19.60;99.90
19868;DHT22;10096;51.112;6.776;2023-06-14T00:41:40;19.50;99.90
19868;DHT22;10096;51.112;6.776;2023-06-14T00:44:07;19.50;99.90
19868;DHT22;10096;51.112;6.776;2023-06-14T00:46:34;19.40;99.90
19868;DHT22;10096;51.112;6.776;2023-06-14T00:49:02;19.50;99.90
19868;DHT22;10096;51.112;6.776;2023-06-14T00:51:30;19.40;99.90
19868;DHT22;10096;51.112;6.776;2023-06-14T00:53:57;19.60;99.90
19868;DHT22;10096;51.112;6.776;2023-06-14T00:56:26;19.30;99.90
19868;DHT22;10096;51.112;6.776;2023-06-14T00:58:58;19.10;99.90
19868;DHT22;10096;51.112;6.776;2023-06-14T01:01:26;19.60;99.90
19868;DHT22;10096;51.112;6.776;2023-06-14T01:03:54;19.40;99.90
19868;DHT22;10096;51.112;6.776;2023-06-14T01:06:29;19.50;99.90
19868;DHT22;10096;51.112;6.776;2023-06-14T01:09:06;19.60;99.90
19868;DHT22;10096;51.112;6.776;2023-06-14T01:11:45;19.60;99.90
19868;DHT22;10096;51.112;6.776;2023-06-14T01:14:23;19.60;99.90
19868;DHT22;10096;51.112;6.776;2023-06-14T01:16:52;19.60;99.90
19868;DHT22;10096;51.112;6.776;2023-06-14T01:19:22;19.20;99.90
19868;DHT22;10096;51.112;6.776;2023-06-14T01:21:51;19.30;99.90
19868;DHT22;10096;51.112;6.776;2023-06-14T01:24:20;19.10;99.90
19868;DHT22;10096;51.112;6.776;2023-06-14T01:26:52;19.00;99.90
19868;DHT22;10096;51.112;6.776;2023-06-14T01:29:22;18.90;99.90
19868;DHT22;10096;51.112;6.776;2023-06-14T01:31:50;18.90;99.90
19868;DHT22;10096;51.112;6.776;2023-06-14T01:34:17;18.60;99.90
19868;DHT22;10096;51.112;6.776;2023-06-14T01:36:50;18.90;99.90
19868;DHT22;10096;51.112;6.776;2023-06-14T01:39:20;18.70;99.90
19868;DHT22;10096;51.112;6.776;2023-06-14T01:41:49;18.60;99.90
19868;DHT22;10096;51.112;6.776;2023-06-14T01:44:19;18.60;99.90
19868;DHT22;10096;51.112;6.776;2023-06-14T01:46:47;18.40;99.90
19868;DHT22;10096;51.112;6.776;2023-06-14T01:49:15;18.70;99.90
19868;DHT22;10096;51.112;6.776;2023-06-14T01:51:42;18.60;99.90
19868;DHT22;10096;51.112;6.776;2023-06-14T01:54:10;18.50;99.90
19868;DHT22;10096;51.112;6.776;2023-06-14T01:56:41;18.60;99.90
19868;DHT22;10096;51.112;6.776;2023-06-14T01:59:08;18.50;99.90
19868;DHT22;10096;51.112;6.776;2023-06-14T02:01:35;18.50;99.90
19868;DHT22;10096;51.112;6.776;2023-06-14T02:04:03;18.40;99.90
19868;DHT22;10096;51.112;6.776;2023-06-14T02:06:31;18.50;99.90
19868;DHT22;10096;51.112;6.776;2023-06-14T02:09:01;18.30;99.90
19868;DHT22;10096;51.112;6.776;2023-06-14T02:11:28;18.30;99.90
19868;DHT22;10096;51.112;6.776;2023-06-14T02:13:57;18.20;99.90
19868;DHT22;10096;51.112;6.776;2023-06-14T02:16:25;18.20;99.90
19868;DHT22;10096;51.112;6.776;2023-06-14T02:18:53;18.00;99.90
19868;DHT22;10096;51.112;6.776;2023-06-14T02:21:23;17.90;99.90
19868;DHT22;10096;51.112;6.776;2023-06-14T02:23:51;17.80;99.90
19868;DHT22;10096;51.112;6.776;2023-06-14T02:26:18;17.90;99.90
19868;DHT22;10096;51.112;6.776;2023-06-14T02:28:46;18.00;99.90
19868;DHT22;10096;51.112;6.776;2023-06-14T02:31:16;18.00;99.90
19868;DHT22;10096;51.112;6.776;2023-06-14T02:33:43;18.10;99.90
19868;DHT22;10096;51.112;6.776;2023-06-14T02:36:10;18.00;99.90
19868;DHT22;10096;51.112;6.776;2023-06-14T02:38:38;17.90;99.90
19868;DHT22;10096;51.112;6.776;2023-06-14T02:41:05;18.20;99.90
19868;DHT22;10096;51.112;6.776;2023-06-14T02:43:32;18.10;99.90
19868;DHT22;10096;51.112;6.776;2023-06-14T02:46:00;18.00;99.90
19868;DHT22;10096;51.112;6.776;2023-06-14T02:48:29;18.00;99.90
19868;DHT22;10096;51.112;6.776;2023-06-14T02:50:59;18.00;99.90
19868;DHT22;10096;51.112;6.776;2023-06-14T02:53:28;18.00;99.90
19868;DHT22;10096;51.112;6.776;2023-06-14T02:55:55;18.00;99.90
19868;DHT22;10096;51.112;6.776;2023-06-14T02:58:25;18.00;99.90
19868;DHT22;10096;51.112;6.776;2023-06-14T03:00:52;18.00;99.90
19868;DHT22;10096;51.112;6.776;2023-06-14T03:03:20;17.70;99.90
19868;DHT22;10096;51.112;6.776;2023-06-14T03:05:52;17.80;99.90
19868;DHT22;10096;51.112;6.776;2023-06-14T03:08:20;17.70;99.90
19868;DHT22;10096;51.112;6.776;2023-06-14T03:10:53;17.60;99.90
19868;DHT22;10096;51.112;6.776;2023-06-14T03:13:23;17.70;99.90
19868;DHT22;10096;51.112;6.776;2023-06-14T03:15:50;17.40;99.90
19868;DHT22;10096;51.112;6.776;2023-06-14T03:18:17;17.20;99.90
19868;DHT22;10096;51.112;6.776;2023-06-14T03:20:48;17.20;99.90
19868;DHT22;10096;51.112;6.776;2023-06-14T03:23:21;17.40;99.90
19868;DHT22;10096;51.112;6.776;2023-06-14T03:25:48;17.10;99.90
19868;DHT22;10096;51.112;6.776;2023-06-14T03:28:16;17.10;99.90
19868;DHT22;10096;51.112;6.776;2023-06-14T03:30:43;17.00;99.90
19868;DHT22;10096;51.112;6.776;2023-06-14T03:33:10;17.00;99.90
19868;DHT22;10096;51.112;6.776;2023-06-14T03:35:38;17.20;99.90
19868;DHT22;10096;51.112;6.776;2023-06-14T03:38:05;17.30;99.90
19868;DHT22;10096;51.112;6.776;2023-06-14T03:40:34;17.40;99.90
19868;DHT22;10096;51.112;6.776;2023-06-14T03:43:01;17.80;99.90
19868;DHT22;10096;51.112;6.776;2023-06-14T03:45:28;18.20;99.90
19868;DHT22;10096;51.112;6.776;2023-06-14T03:47:55;18.50;99.90
19868;DHT22;10096;51.112;6.776;2023-06-14T03:50:23;19.00;99.90
19868;DHT22;10096;51.112;6.776;2023-06-14T03:52:51;19.40;99.90
19868;DHT22;10096;51.112;6.776;2023-06-14T03:55:18;19.90;99.90
19868;DHT22;10096;51.112;6.776;2023-06-14T03:57:47;20.40;99.90
19868;DHT22;10096;51.112;6.776;2023-06-14T04:00:15;20.90;99.90
19868;DHT22;10096;51.112;6.776;2023-06-14T04:02:44;21.50;99.90
19868;DHT22;10096;51.112;6.776;2023-06-14T04:05:11;21.90;99.90
19868;DHT22;10096;51.112;6.776;2023-06-14T04:07:38;22.40;99.90
19868;DHT22;10096;51.112;6.776;2023-06-14T04:10:10;22.80;99.90
19868;DHT22;10096;51.112;6.776;2023-06-14T04:12:38;23.20;99.90
19868;DHT22;10096;51.112;6.776;2023-06-14T04:15:08;23.50;99.90
19868;DHT22;10096;51.112;6.776;2023-06-14T04:17:36;24.10;99.90
19868;DHT22;10096;51.112;6.776;2023-06-14T04:20:06;24.50;99.90
19868;DHT22;10096;51.112;6.776;2023-06-14T04:22:35;25.10;99.90
19868;DHT22;10096;51.112;6.776;2023-06-14T04:25:03;25.70;99.90
19868;DHT22;10096;51.112;6.776;2023-06-14T04:27:32;25.90;99.90
19868;DHT22;10096;51.112;6.776;2023-06-14T04:30:02;26.30;99.90
19868;DHT22;10096;51.112;6.776;2023-06-14T04:32:33;26.80;99.90
19868;DHT22;10096;51.112;6.776;2023-06-14T04:35:05;26.60;99.90
19868;DHT22;10096;51.112;6.776;2023-06-14T04:37:33;27.10;99.90
19868;DHT22;10096;51.112;6.776;2023-06-14T04:40:01;27.50;99.90
19868;DHT22;10096;51.112;6.776;2023-06-14T04:42:32;27.60;99.90
19868;DHT22;10096;51.112;6.776;2023-06-14T04:45:02;28.10;99.90
19868;DHT22;10096;51.112;6.776;2023-06-14T04:47:34;28.50;99.90
19868;DHT22;10096;51.112;6.776;2023-06-14T04:50:06;28.70;99.90
19868;DHT22;10096;51.112;6.776;2023-06-14T04:52:33;28.50;99.90
19868;DHT22;10096;51.112;6.776;2023-06-14T04:55:01;28.00;99.90
19868;DHT22;10096;51.112;6.776;2023-06-14T04:57:28;28.40;99.90
19868;DHT22;10096;51.112;6.776;2023-06-14T04:59:56;28.60;99.90
19868;DHT22;10096;51.112;6.776;2023-06-14T05:02:26;29.30;99.90
19868;DHT22;10096;51.112;6.776;2023-06-14T05:04:57;29.40;99.90
19868;DHT22;10096;51.112;6.776;2023-06-14T05:07:26;29.30;99.90
19868;DHT22;10096;51.112;6.776;2023-06-14T05:09:53;29.20;99.90
19868;DHT22;10096;51.112;6.776;2023-06-14T05:12:21;29.70;99.90
19868;DHT22;10096;51.112;6.776;2023-06-14T05:14:49;30.20;99.90
19868;DHT22;10096;51.112;6.776;2023-06-14T05:17:17;30.40;99.90
19868;DHT22;10096;51.112;6.776;2023-06-14T05:19:45;30.90;99.90
19868;DHT22;10096;51.112;6.776;2023-06-14T05:22:14;31.20;99.90
19868;DHT22;10096;51.112;6.776;2023-06-14T05:24:41;31.10;99.90
19868;DHT22;10096;51.112;6.776;2023-06-14T05:27:11;31.40;99.90
19868;DHT22;10096;51.112;6.776;2023-06-14T05:29:38;31.60;99.90
19868;DHT22;10096;51.112;6.776;2023-06-14T05:32:09;31.40;99.90
19868;DHT22;10096;51.112;6.776;2023-06-14T05:34:36;31.30;99.90
19868;DHT22;10096;51.112;6.776;2023-06-14T05:37:04;31.40;99.90
19868;DHT22;10096;51.112;6.776;2023-06-14T05:39:32;31.70;99.90
19868;DHT22;10096;51.112;6.776;2023-06-14T05:42:09;31.70;99.90
19868;DHT22;10096;51.112;6.776;2023-06-14T05:44:37;31.60;99.90
19868;DHT22;10096;51.112;6.776;2023-06-14T05:47:06;32.00;99.90
19868;DHT22;10096;51.112;6.776;2023-06-14T05:49:33;32.40;99.90
19868;DHT22;10096;51.112;6.776;2023-06-14T05:52:00;32.70;99.90
19868;DHT22;10096;51.112;6.776;2023-06-14T05:54:28;32.40;99.90
19868;DHT22;10096;51.112;6.776;2023-06-14T05:56:59;32.70;99.90
19868;DHT22;10096;51.112;6.776;2023-06-14T05:59:27;32.50;99.90
19868;DHT22;10096;51.112;6.776;2023-06-14T06:01:55;32.10;99.90
19868;DHT22;10096;51.112;6.776;2023-06-14T06:04:23;32.20;99.90
19868;DHT22;10096;51.112;6.776;2023-06-14T06:06:51;32.40;99.90
19868;DHT22;10096;51.112;6.776;2023-06-14T06:09:19;32.60;99.90
19868;DHT22;10096;51.112;6.776;2023-06-14T06:11:46;32.80;99.90
19868;DHT22;10096;51.112;6.776;2023-06-14T06:14:17;33.10;99.90
19868;DHT22;10096;51.112;6.776;2023-06-14T06:16:47;33.10;99.90
19868;DHT22;10096;51.112;6.776;2023-06-14T06:19:15;33.30;99.90
19868;DHT22;10096;51.112;6.776;2023-06-14T06:21:42;33.30;99.90
19868;DHT22;10096;51.112;6.776;2023-06-14T06:24:10;33.30;99.90
19868;DHT22;10096;51.112;6.776;2023-06-14T06:26:37;33.20;99.90
19868;DHT22;10096;51.112;6.776;2023-06-14T06:29:08;33.00;99.90
19868;DHT22;10096;51.112;6.776;2023-06-14T06:31:37;33.30;99.90
19868;DHT22;10096;51.112;6.776;2023-06-14T06:34:04;33.10;99.90
19868;DHT22;10096;51.112;6.776;2023-06-14T06:36:32;33.10;99.90
19868;DHT22;10096;51.112;6.776;2023-06-14T06:39:00;33.10;99.90
19868;DHT22;10096;51.112;6.776;2023-06-14T06:41:31;33.30;99.90
19868;DHT22;10096;51.112;6.776;2023-06-14T06:44:00;32.70;99.90
19868;DHT22;10096;51.112;6.776;2023-06-14T06:46:28;32.40;99.90
19868;DHT22;10096;51.112;6.776;2023-06-14T06:48:57;32.40;99.90
19868;DHT22;10096;51.112;6.776;2023-06-14T06:51:24;33.00;99.90
19868;DHT22;10096;51.112;6.776;2023-06-14T06:53:53;33.30;99.90
19868;DHT22;10096;51.112;6.776;2023-06-14T06:56:20;32.90;99.90
19868;DHT22;10096;51.112;6.776;2023-06-14T06:58:49;32.80;99.90
19868;DHT22;10096;51.112;6.776;2023-06-14T07:01:16;32.70;99.90
19868;DHT22;10096;51.112;6.776;2023-06-14T07:03:44;32.90;99.90
19868;DHT22;10096;51.112;6.776;2023-06-14T07:06:14;33.20;99.90
19868;DHT22;10096;51.112;6.776;2023-06-14T07:08:44;33.40;99.90
19868;DHT22;10096;51.112;6.776;2023-06-14T07:11:19;33.30;99.90
19868;DHT22;10096;51.112;6.776;2023-06-14T07:13:47;33.40;99.90
19868;DHT22;10096;51.112;6.776;2023-06-14T07:16:14;33.60;99.90
19868;DHT22;10096;51.112;6.776;2023-06-14T07:18:41;34.10;99.90
19868;DHT22;10096;51.112;6.776;2023-06-14T07:21:08;34.30;99.90
19868;DHT22;10096;51.112;6.776;2023-06-14T07:23:37;33.90;99.90
19868;DHT22;10096;51.112;6.776;2023-06-14T07:26:04;34.00;99.90
19868;DHT22;10096;51.112;6.776;2023-06-14T07:28:31;33.70;99.90
19868;DHT22;10096;51.112;6.776;2023-06-14T07:30:59;34.00;99.90
19868;DHT22;10096;51.112;6.776;2023-06-14T07:33:26;33.30;99.90
19868;DHT22;10096;51.112;6.776;2023-06-14T07:35:54;33.10;99.90
19868;DHT22;10096;51.112;6.776;2023-06-14T07:38:21;33.10;99.90
19868;DHT22;10096;51.112;6.776;2023-06-14T07:40:50;33.00;99.90
19868;DHT22;10096;51.112;6.776;2023-06-14T07:43:17;33.20;99.90
19868;DHT22;10096;51.112;6.776;2023-06-14T07:45:47;33.60;99.90
19868;DHT22;10096;51.112;6.776;2023-06-14T07:48:14;33.30;99.90
19868;DHT22;10096;51.112;6.776;2023-06-14T07:50:41;32.60;99.90
19868;DHT22;10096;51.112;6.776;2023-06-14T07:53:09;32.40;99.90
19868;DHT22;10096;51.112;6.776;2023-06-14T07:55:36;31.80;99.90
19868;DHT22;10096;51.112;6.776;2023-06-14T07:58:06;31.40;99.90
19868;DHT22;10096;51.112;6.776;2023-06-14T08:00:34;30.70;99.90
19868;DHT22;10096;51.112;6.776;2023-06-14T08:03:02;30.90;99.90
19868;DHT22;10096;51.112;6.776;2023-06-14T08:05:37;31.00;99.90
19868;DHT22;10096;51.112;6.776;2023-06-14T08:08:07;30.80;99.90
19868;DHT22;10096;51.112;6.776;2023-06-14T08:10:34;30.50;99.90
19868;DHT22;10096;51.112;6.776;2023-06-14T08:13:05;30.90;99.90
19868;DHT22;10096;51.112;6.776;2023-06-14T08:15:32;31.00;99.90
19868;DHT22;10096;51.112;6.776;2023-06-14T08:18:00;31.00;99.90
19868;DHT22;10096;51.112;6.776;2023-06-14T08:20:27;31.50;99.90
19868;DHT22;10096;51.112;6.776;2023-06-14T08:22:56;31.40;99.90
19868;DHT22;10096;51.112;6.776;2023-06-14T08:25:23;30.80;99.90
19868;DHT22;10096;51.112;6.776;2023-06-14T08:27:53;30.90;99.90
19868;DHT22;10096;51.112;6.776;2023-06-14T08:30:22;31.10;99.90
19868;DHT22;10096;51.112;6.776;2023-06-14T08:32:50;31.50;99.90
19868;DHT22;10096;51.112;6.776;2023-06-14T08:35:18;31.90;99.90
19868;DHT22;10096;51.112;6.776;2023-06-14T08:37:45;31.60;99.90
19868;DHT22;10096;51.112;6.776;2023-06-14T08:40:19;31.40;99.90
19868;DHT22;10096;51.112;6.776;2023-06-14T08:42:50;31.20;99.90
19868;DHT22;10096;51.112;6.776;2023-06-14T08:45:19;31.00;99.90
19868;DHT22;10096;51.112;6.776;2023-06-14T08:47:48;31.70;99.90
19868;DHT22;10096;51.112;6.776;2023-06-14T08:50:20;31.40;99.90
19868;DHT22;10096;51.112;6.776;2023-06-14T08:52:53;31.50;99.90
19868;DHT22;10096;51.112;6.776;2023-06-14T08:55:23;31.60;99.90
19868;DHT22;10096;51.112;6.776;2023-06-14T08:57:55;30.20;99.90
19868;DHT22;10096;51.112;6.776;2023-06-14T09:00:23;29.70;99.90
19868;DHT22;10096;51.112;6.776;2023-06-14T09:02:53;29.80;99.90
19868;DHT22;10096;51.112;6.776;2023-06-14T09:05:24;29.90;99.90
19868;DHT22;10096;51.112;6.776;2023-06-14T09:07:52;30.20;99.90
19868;DHT22;10096;51.112;6.776;2023-06-14T09:10:21;29.90;99.90
19868;DHT22;10096;51.112;6.776;2023-06-14T09:12:48;29.60;99.90
19868;DHT22;10096;51.112;6.776;2023-06-14T09:15:16;29.50;99.90
19868;DHT22;10096;51.112;6.776;2023-06-14T09:17:47;29.30;99.90
19868;DHT22;10096;51.112;6.776;2023-06-14T09:20:18;28.50;99.90
19868;DHT22;10096;51.112;6.776;2023-06-14T09:22:46;28.30;99.90
19868;DHT22;10096;51.112;6.776;2023-06-14T09:25:22;28.20;99.90
19868;DHT22;10096;51.112;6.776;2023-06-14T09:27:51;28.10;99.90
19868;DHT22;10096;51.112;6.776;2023-06-14T09:30:20;27.70;99.90
19868;DHT22;10096;51.112;6.776;2023-06-14T09:32:48;27.50;99.90
19868;DHT22;10096;51.112;6.776;2023-06-14T09:35:18;27.20;99.90
19868;DHT22;10096;51.112;6.776;2023-06-14T09:37:55;27.10;99.90
19868;DHT22;10096;51.112;6.776;2023-06-14T09:40:26;27.00;99.90
19868;DHT22;10096;51.112;6.776;2023-06-14T09:42:54;26.90;99.90
19868;DHT22;10096;51.112;6.776;2023-06-14T09:45:24;26.90;99.90
19868;DHT22;10096;51.112;6.776;2023-06-14T09:47:55;26.60;99.90
19868;DHT22;10096;51.112;6.776;2023-06-14T09:50:25;26.20;99.90
19868;DHT22;10096;51.112;6.776;2023-06-14T09:52:53;26.30;99.90
19868;DHT22;10096;51.112;6.776;2023-06-14T09:55:33;26.30;99.90
19868;DHT22;10096;51.112;6.776;2023-06-14T09:58:07;26.50;99.90
19868;DHT22;10096;51.112;6.776;2023-06-14T10:00:36;26.40;99.90
19868;DHT22;10096;51.112;6.776;2023-06-14T10:03:13;26.00;99.90
19868;DHT22;10096;51.112;6.776;2023-06-14T10:05:45;26.00;99.90
19868;DHT22;10096;51.112;6.776;2023-06-14T10:08:15;26.20;99.90
19868;DHT22;10096;51.112;6.776;2023-06-14T10:10:43;26.30;99.90
19868;DHT22;10096;51.112;6.776;2023-06-14T10:13:12;26.30;99.90
19868;DHT22;10096;51.112;6.776;2023-06-14T10:15:48;26.40;99.90
19868;DHT22;10096;51.112;6.776;2023-06-14T10:18:23;26.20;99.90
19868;DHT22;10096;51.112;6.776;2023-06-14T10:21:02;26.40;99.90
19868;DHT22;10096;51.112;6.776;2023-06-14T10:23:37;26.40;99.90
19868;DHT22;10096;51.112;6.776;2023-06-14T10:26:05;26.40;99.90
19868;DHT22;10096;51.112;6.776;2023-06-14T10:28:32;25.90;99.90
19868;DHT22;10096;51.112;6.776;2023-06-14T10:31:15;25.70;99.90
19868;DHT22;10096;51.112;6.776;2023-06-14T10:33:49;26.30;99.90
19868;DHT22;10096;51.112;6.776;2023-06-14T10:36:28;26.40;99.90
19868;DHT22;10096;51.112;6.776;2023-06-14T10:39:05;26.30;99.90
19868;DHT22;10096;51.112;6.776;2023-06-14T10:41:39;26.20;99.90
19868;DHT22;10096;51.112;6.776;2023-06-14T10:44:43;26.20;99.90
19868;DHT22;10096;51.112;6.776;2023-06-14T10:47:23;26.20;99.90
19868;DHT22;10096;51.112;6.776;2023-06-14T10:56:23;26.10;99.90
19868;DHT22;10096;51.112;6.776;2023-06-14T10:58:54;26.40;99.90
19868;DHT22;10096;51.112;6.776;2023-06-14T11:01:35;26.60;99.90
19868;DHT22;10096;51.112;6.776;2023-06-14T11:04:12;26.20;99.90
19868;DHT22;10096;51.112;6.776;2023-06-14T11:06:48;26.30;99.90
19868;DHT22;10096;51.112;6.776;2023-06-14T11:09:47;26.30;99.90
19868;DHT22;10096;51.112;6.776;2023-06-14T11:12:32;26.40;99.90
19868;DHT22;10096;51.112;6.776;2023-06-14T11:15:01;26.60;99.90
19868;DHT22;10096;51.112;6.776;2023-06-14T11:17:29;26.70;99.90
19868;DHT22;10096;51.112;6.776;2023-06-14T11:20:08;26.80;99.90
19868;DHT22;10096;51.112;6.776;2023-06-14T11:22:39;26.80;99.90
19868;DHT22;10096;51.112;6.776;2023-06-14T11:25:10;26.90;99.90
19868;DHT22;10096;51.112;6.776;2023-06-14T11:27:41;26.90;99.90
19868;DHT22;10096;51.112;6.776;2023-06-14T11:30:10;26.80;99.90
19868;DHT22;10096;51.112;6.776;2023-06-14T11:32:37;26.60;99.90
19868;DHT22;10096;51.112;6.776;2023-06-14T11:35:06;26.60;99.90
19868;DHT22;10096;51.112;6.776;2023-06-14T11:37:36;26.60;99.90
19868;DHT22;10096;51.112;6.776;2023-06-14T11:40:06;26.60;99.90
19868;DHT22;10096;51.112;6.776;2023-06-14T11:42:36;26.80;99.90
19868;DHT22;10096;51.112;6.776;2023-06-14T11:48:44;26.80;99.90
19868;DHT22;10096;51.112;6.776;2023-06-14T11:51:13;26.70;99.90
19868;DHT22;10096;51.112;6.776;2023-06-14T11:54:05;26.70;99.90
19868;DHT22;10096;51.112;6.776;2023-06-14T11:56:52;26.70;99.90
19868;DHT22;10096;51.112;6.776;2023-06-14T11:59:21;26.80;99.90
19868;DHT22;10096;51.112;6.776;2023-06-14T12:01:53;26.80;99.90
19868;DHT22;10096;51.112;6.776;2023-06-14T12:04:28;27.00;99.90
19868;DHT22;10096;51.112;6.776;2023-06-14T12:06:55;27.10;99.90
19868;DHT22;10096;51.112;6.776;2023-06-14T12:09:23;27.20;99.90
19868;DHT22;10096;51.112;6.776;2023-06-14T12:11:59;27.10;99.90
19868;DHT22;10096;51.112;6.776;2023-06-14T12:14:28;26.90;99.90
19868;DHT22;10096;51.112;6.776;2023-06-14T12:17:04;26.90;99.90
19868;DHT22;10096;51.112;6.776;2023-06-14T12:19:41;26.80;99.90
19868;DHT22;10096;51.112;6.776;2023-06-14T12:22:10;26.80;99.90
19868;DHT22;10096;51.112;6.776;2023-06-14T12:25:00;26.60;99.90
19868;DHT22;10096;51.112;6.776;2023-06-14T12:27:50;26.60;99.90
19868;DHT22;10096;51.112;6.776;2023-06-14T12:30:20;26.80;99.90
19868;DHT22;10096;51.112;6.776;2023-06-14T12:32:47;27.00;99.90
19868;DHT22;10096;51.112;6.776;2023-06-14T12:35:21;26.90;99.90
19868;DHT22;10096;51.112;6.776;2023-06-14T12:37:50;27.00;99.90
19868;DHT22;10096;51.112;6.776;2023-06-14T12:40:21;26.90;99.90
19868;DHT22;10096;51.112;6.776;2023-06-14T12:42:48;27.30;99.90
19868;DHT22;10096;51.112;6.776;2023-06-14T12:45:16;27.70;99.90
19868;DHT22;10096;51.112;6.776;2023-06-14T12:47:43;27.50;99.90
19868;DHT22;10096;51.112;6.776;2023-06-14T12:50:11;27.50;99.90
19868;DHT22;10096;51.112;6.776;2023-06-14T12:52:40;27.30;99.90
19868;DHT22;10096;51.112;6.776;2023-06-14T12:55:08;27.60;99.90
19868;DHT22;10096;51.112;6.776;2023-06-14T12:57:35;27.80;99.90
19868;DHT22;10096;51.112;6.776;2023-06-14T13:00:04;27.80;99.90
19868;DHT22;10096;51.112;6.776;2023-06-14T13:02:33;27.90;99.90
19868;DHT22;10096;51.112;6.776;2023-06-14T13:05:00;27.60;99.90
19868;DHT22;10096;51.112;6.776;2023-06-14T13:07:29;27.50;99.90
19868;DHT22;10096;51.112;6.776;2023-06-14T13:10:01;27.50;99.90
19868;DHT22;10096;51.112;6.776;2023-06-14T13:12:28;27.40;99.90
19868;DHT22;10096;51.112;6.776;2023-06-14T13:14:55;27.40;99.90
19868;DHT22;10096;51.112;6.776;2023-06-14T13:17:24;27.30;99.90
19868;DHT22;10096;51.112;6.776;2023-06-14T13:19:51;27.30;99.90
19868;DHT22;10096;51.112;6.776;2023-06-14T13:22:18;27.30;99.90
19868;DHT22;10096;51.112;6.776;2023-06-14T13:24:46;27.20;99.90
19868;DHT22;10096;51.112;6.776;2023-06-14T13:27:17;27.30;99.90
19868;DHT22;10096;51.112;6.776;2023-06-14T13:29:51;27.50;99.90
19868;DHT22;10096;51.112;6.776;2023-06-14T13:32:21;27.80;99.90
19868;DHT22;10096;51.112;6.776;2023-06-14T13:34:49;28.30;99.90
19868;DHT22;10096;51.112;6.776;2023-06-14T13:37:17;28.50;99.90
19868;DHT22;10096;51.112;6.776;2023-06-14T13:39:44;28.40;99.90
19868;DHT22;10096;51.112;6.776;2023-06-14T13:42:11;28.10;99.90
19868;DHT22;10096;51.112;6.776;2023-06-14T13:44:40;28.20;99.90
19868;DHT22;10096;51.112;6.776;2023-06-14T13:47:08;27.90;99.90
19868;DHT22;10096;51.112;6.776;2023-06-14T13:49:36;28.00;99.90
19868;DHT22;10096;51.112;6.776;2023-06-14T13:52:06;28.10;99.90
19868;DHT22;10096;51.112;6.776;2023-06-14T13:54:34;28.10;99.90
19868;DHT22;10096;51.112;6.776;2023-06-14T13:57:02;28.00;99.90
19868;DHT22;10096;51.112;6.776;2023-06-14T13:59:32;28.10;99.90
19868;DHT22;10096;51.112;6.776;2023-06-14T14:02:01;28.00;99.90
19868;DHT22;10096;51.112;6.776;2023-06-14T14:04:29;28.10;99.90
19868;DHT22;10096;51.112;6.776;2023-06-14T14:06:56;28.20;99.90
19868;DHT22;10096;51.112;6.776;2023-06-14T14:09:24;28.60;99.90
19868;DHT22;10096;51.112;6.776;2023-06-14T14:11:54;28.70;99.90
19868;DHT22;10096;51.112;6.776;2023-06-14T14:14:21;28.60;99.90
19868;DHT22;10096;51.112;6.776;2023-06-14T14:16:49;28.80;99.90
19868;DHT22;10096;51.112;6.776;2023-06-14T14:19:25;28.70;99.90
19868;DHT22;10096;51.112;6.776;2023-06-14T14:21:52;28.40;99.90
19868;DHT22;10096;51.112;6.776;2023-06-14T14:24:21;28.40;99.90
19868;DHT22;10096;51.112;6.776;2023-06-14T14:26:48;28.30;99.90
19868;DHT22;10096;51.112;6.776;2023-06-14T14:29:22;28.10;99.90
19868;DHT22;10096;51.112;6.776;2023-06-14T14:31:53;27.80;99.90
19868;DHT22;10096;51.112;6.776;2023-06-14T14:34:26;27.90;99.90
19868;DHT22;10096;51.112;6.776;2023-06-14T14:36:54;27.60;99.90
19868;DHT22;10096;51.112;6.776;2023-06-14T14:39:22;27.50;99.90
19868;DHT22;10096;51.112;6.776;2023-06-14T14:41:51;27.50;99.90
19868;DHT22;10096;51.112;6.776;2023-06-14T14:44:23;27.60;99.90
19868;DHT22;10096;51.112;6.776;2023-06-14T14:46:52;27.70;99.90
19868;DHT22;10096;51.112;6.776;2023-06-14T14:49:21;27.70;99.90
19868;DHT22;10096;51.112;6.776;2023-06-14T14:51:50;28.00;99.90
19868;DHT22;10096;51.112;6.776;2023-06-14T14:54:18;27.60;99.90
19868;DHT22;10096;51.112;6.776;2023-06-14T14:56:56;27.70;99.90
19868;DHT22;10096;51.112;6.776;2023-06-14T14:59:27;27.60;99.90
19868;DHT22;10096;51.112;6.776;2023-06-14T15:01:55;27.60;99.90
19868;DHT22;10096;51.112;6.776;2023-06-14T15:04:22;27.70;99.90
19868;DHT22;10096;51.112;6.776;2023-06-14T15:06:51;27.90;99.90
19868;DHT22;10096;51.112;6.776;2023-06-14T15:09:21;27.80;99.90
19868;DHT22;10096;51.112;6.776;2023-06-14T15:11:49;28.10;99.90
19868;DHT22;10096;51.112;6.776;2023-06-14T15:14:16;27.70;99.90
19868;DHT22;10096;51.112;6.776;2023-06-14T15:16:44;27.50;99.90
19868;DHT22;10096;51.112;6.776;2023-06-14T15:19:11;27.50;99.90
19868;DHT22;10096;51.112;6.776;2023-06-14T15:21:39;27.60;99.90
19868;DHT22;10096;51.112;6.776;2023-06-14T15:24:08;27.00;99.90
19868;DHT22;10096;51.112;6.776;2023-06-14T15:26:36;27.20;99.90
19868;DHT22;10096;51.112;6.776;2023-06-14T15:29:06;27.30;99.90
19868;DHT22;10096;51.112;6.776;2023-06-14T15:31:36;27.50;99.90
19868;DHT22;10096;51.112;6.776;2023-06-14T15:34:03;27.30;99.90
19868;DHT22;10096;51.112;6.776;2023-06-14T15:36:34;27.50;99.90
19868;DHT22;10096;51.112;6.776;2023-06-14T15:39:01;27.30;99.90
19868;DHT22;10096;51.112;6.776;2023-06-14T15:41:35;27.50;99.90
19868;DHT22;10096;51.112;6.776;2023-06-14T15:44:02;27.40;99.90
19868;DHT22;10096;51.112;6.776;2023-06-14T15:46:30;27.30;99.90
19868;DHT22;10096;51.112;6.776;2023-06-14T15:48:57;27.20;99.90
19868;DHT22;10096;51.112;6.776;2023-06-14T15:51:27;26.90;99.90
19868;DHT22;10096;51.112;6.776;2023-06-14T15:53:55;26.70;99.90
19868;DHT22;10096;51.112;6.776;2023-06-14T15:56:25;26.70;99.90